createdAt,value
2018-11-27T00:00:26.910Z,5.20
2018-11-27T00:02:59.467Z,5.20
2018-11-27T00:05:28.513Z,5.20
2018-11-27T00:07:57.131Z,5.20
2018-11-27T00:10:25.661Z,5.20
2018-11-27T00:12:54.252Z,5.20
2018-11-27T00:15:22.757Z,5.20
2018-11-27T00:17:51.457Z,5.20
2018-11-27T00:20:19.904Z,5.20
2018-11-27T00:22:48.401Z,5.20
2018-11-27T00:25:17.990Z,5.20
2018-11-27T00:27:46.581Z,5.20
2018-11-27T00:30:16.841Z,5.20
2018-11-27T00:32:45.452Z,5.10
2018-11-27T00:35:15.180Z,5.10
2018-11-27T00:37:43.662Z,5.10
2018-11-27T00:40:14.394Z,5.10
2018-11-27T00:42:43.121Z,5.10
2018-11-27T00:45:14.516Z,5.20
2018-11-27T00:47:44.153Z,5.10
2018-11-27T00:50:19.417Z,5.20
2018-11-27T00:52:48.205Z,5.10
2018-11-27T00:55:17.876Z,5.10
2018-11-27T00:57:47.588Z,5.10
2018-11-27T01:00:21.108Z,5.20
2018-11-27T01:02:49.970Z,5.20
2018-11-27T01:05:19.853Z,5.10
2018-11-27T01:07:48.472Z,5.10
2018-11-27T01:10:21.066Z,5.10
2018-11-27T01:12:49.656Z,5.10
2018-11-27T01:15:18.171Z,5.10
2018-11-27T01:17:50.893Z,5.10
2018-11-27T01:20:20.481Z,5.10
2018-11-27T01:22:49.037Z,5.10
2018-11-27T01:25:17.678Z,5.10
2018-11-27T01:27:46.148Z,5.10
2018-11-27T01:30:16.805Z,5.10
2018-11-27T01:32:45.601Z,5.10
2018-11-27T01:35:15.216Z,5.10
2018-11-27T01:37:44.145Z,5.10
2018-11-27T01:40:14.897Z,5.10
2018-11-27T01:42:43.732Z,5.20
2018-11-27T01:45:13.498Z,5.20
2018-11-27T01:47:42.192Z,5.10
2018-11-27T01:50:12.120Z,5.10
2018-11-27T01:52:40.656Z,5.10
2018-11-27T01:55:13.201Z,5.10
2018-11-27T01:57:41.666Z,5.10
2018-11-27T02:00:27.253Z,5.10
2018-11-27T02:02:56.505Z,5.10
2018-11-27T02:05:25.937Z,5.10
2018-11-27T02:07:54.961Z,5.20
2018-11-27T02:10:23.445Z,5.10
2018-11-27T02:12:53.001Z,5.10
2018-11-27T02:15:26.281Z,5.10
2018-11-27T02:17:54.992Z,5.10
2018-11-27T02:20:23.501Z,5.10
2018-11-27T02:22:52.466Z,5.00
2018-11-27T02:25:22.212Z,5.10
2018-11-27T02:27:50.852Z,5.10
2018-11-27T02:30:20.768Z,5.10
2018-11-27T02:32:49.395Z,5.10
2018-11-27T02:35:18.858Z,5.10
2018-11-27T02:37:48.456Z,5.10
2018-11-27T02:40:17.860Z,5.10
2018-11-27T02:42:46.390Z,5.10
2018-11-27T02:45:16.561Z,5.10
2018-11-27T02:47:45.689Z,5.10
2018-11-27T02:50:16.502Z,5.10
2018-11-27T02:52:45.132Z,5.00
2018-11-27T02:55:18.471Z,5.00
2018-11-27T02:57:47.127Z,5.00
2018-11-27T03:00:17.534Z,5.10
2018-11-27T03:02:46.025Z,5.10
2018-11-27T03:05:18.005Z,5.10
2018-11-27T03:07:46.706Z,5.10
2018-11-27T03:10:15.972Z,5.10
2018-11-27T03:12:44.495Z,5.10
2018-11-27T03:15:14.285Z,5.10
2018-11-27T03:17:42.996Z,5.10
2018-11-27T03:20:12.569Z,5.20
2018-11-27T03:22:41.281Z,5.10
2018-11-27T03:25:13.880Z,5.10
2018-11-27T03:27:42.633Z,5.10
2018-11-27T03:30:12.642Z,5.10
2018-11-27T03:32:41.227Z,5.10
2018-11-27T03:35:11.403Z,5.10
2018-11-27T03:37:39.896Z,5.10
2018-11-27T03:40:12.807Z,5.10
2018-11-27T03:42:41.346Z,5.10
2018-11-27T03:45:11.357Z,5.10
2018-11-27T03:47:40.246Z,5.00
2018-11-27T03:50:11.721Z,4.90
2018-11-27T03:52:40.288Z,4.80
2018-11-27T03:55:10.823Z,4.90
2018-11-27T03:57:39.339Z,4.90
2018-11-27T04:00:16.160Z,5.00
2018-11-27T04:02:45.886Z,5.00
2018-11-27T04:05:14.593Z,5.00
2018-11-27T04:07:43.093Z,4.90
2018-11-27T04:10:15.078Z,5.00
2018-11-27T04:12:43.574Z,4.90
2018-11-27T04:15:12.796Z,5.00
2018-11-27T04:17:41.827Z,5.00
2018-11-27T04:20:11.467Z,5.00
2018-11-27T04:22:40.466Z,5.00
2018-11-27T04:25:13.236Z,4.90
2018-11-27T04:27:41.976Z,5.00
2018-11-27T04:30:13.461Z,5.00
2018-11-27T04:32:42.263Z,5.00
2018-11-27T04:35:15.073Z,5.00
2018-11-27T04:37:43.595Z,5.00
2018-11-27T04:40:15.070Z,5.00
2018-11-27T04:42:43.569Z,4.90
2018-11-27T04:45:13.582Z,4.90
2018-11-27T04:47:42.061Z,5.00
2018-11-27T04:50:11.958Z,5.10
2018-11-27T04:52:40.575Z,5.00
2018-11-27T04:55:16.198Z,5.00
2018-11-27T04:57:45.694Z,4.90
2018-11-27T05:00:29.448Z,4.80
2018-11-27T05:02:57.931Z,4.90
2018-11-27T05:05:26.430Z,5.00
2018-11-27T05:07:54.945Z,5.00
2018-11-27T05:10:24.368Z,5.00
2018-11-27T05:12:53.190Z,5.00
2018-11-27T05:15:24.424Z,4.90
2018-11-27T05:17:55.066Z,5.00
2018-11-27T05:20:23.772Z,5.00
2018-11-27T05:22:52.293Z,5.00
2018-11-27T05:25:21.213Z,5.00
2018-11-27T05:27:51.140Z,4.90
2018-11-27T05:30:20.812Z,4.90
2018-11-27T05:32:49.389Z,4.80
2018-11-27T05:35:19.487Z,4.70
2018-11-27T05:37:48.988Z,4.70
2018-11-27T05:40:18.811Z,4.80
2018-11-27T05:42:48.217Z,4.90
2018-11-27T05:45:17.972Z,4.90
2018-11-27T05:47:46.512Z,4.90
2018-11-27T05:50:16.307Z,4.90
2018-11-27T05:52:45.013Z,4.80
2018-11-27T05:55:14.208Z,4.60
2018-11-27T05:57:43.753Z,4.60
2018-11-27T06:00:16.399Z,4.70
2018-11-27T06:02:45.397Z,4.70
2018-11-27T06:05:16.785Z,4.60
2018-11-27T06:07:45.776Z,4.50
2018-11-27T06:10:15.645Z,4.70
2018-11-27T06:12:44.242Z,4.70
2018-11-27T06:15:16.848Z,4.70
2018-11-27T06:17:46.205Z,4.80
2018-11-27T06:20:15.968Z,4.60
2018-11-27T06:22:44.516Z,4.50
2018-11-27T06:25:14.326Z,4.60
2018-11-27T06:27:42.997Z,4.70
2018-11-27T06:30:14.359Z,4.70
2018-11-27T06:32:43.074Z,4.60
2018-11-27T06:35:12.929Z,4.70
2018-11-27T06:37:41.581Z,4.80
2018-11-27T06:40:14.594Z,4.80
2018-11-27T06:42:43.220Z,4.90
2018-11-27T06:45:15.993Z,4.90
2018-11-27T06:47:45.321Z,4.90
2018-11-27T06:50:14.785Z,4.60
2018-11-27T06:52:44.533Z,4.50
2018-11-27T06:55:14.330Z,4.50
2018-11-27T06:57:43.173Z,4.50
2018-11-27T07:00:16.937Z,4.60
2018-11-27T07:02:45.687Z,4.70
2018-11-27T07:05:14.787Z,4.70
2018-11-27T07:07:43.783Z,4.80
2018-11-27T07:10:18.677Z,4.80
2018-11-27T07:12:47.998Z,4.80
2018-11-27T07:15:18.056Z,4.80
2018-11-27T07:17:46.601Z,4.90
2018-11-27T07:20:15.290Z,4.80
2018-11-27T07:22:43.965Z,4.80
2018-11-27T07:25:13.593Z,4.80
2018-11-27T07:27:45.450Z,4.80
2018-11-27T07:30:18.156Z,4.90
2018-11-27T07:32:46.852Z,4.80
2018-11-27T07:35:16.162Z,4.80
2018-11-27T07:37:44.806Z,4.80
2018-11-27T07:40:17.385Z,4.70
2018-11-27T07:42:46.410Z,4.80
2018-11-27T07:45:19.979Z,4.90
2018-11-27T07:47:48.579Z,4.90
2018-11-27T07:50:17.645Z,4.90
2018-11-27T07:52:46.334Z,5.00
2018-11-27T07:55:16.959Z,4.90
2018-11-27T07:57:45.740Z,4.90
2018-11-27T08:00:16.247Z,5.00
2018-11-27T08:02:46.080Z,5.00
2018-11-27T08:05:15.999Z,5.00
2018-11-27T08:07:47.049Z,5.00
2018-11-27T08:10:17.033Z,4.70
2018-11-27T08:12:45.520Z,4.80
2018-11-27T08:15:15.543Z,4.80
2018-11-27T08:17:44.446Z,4.80
2018-11-27T08:20:18.482Z,4.80
2018-11-27T08:22:46.973Z,4.90
2018-11-27T08:25:15.932Z,5.00
2018-11-27T08:27:44.430Z,4.90
2018-11-27T08:30:16.058Z,5.00
2018-11-27T08:32:44.778Z,5.00
2018-11-27T08:35:29.434Z,4.90
2018-11-27T08:37:59.233Z,5.00
2018-11-27T08:40:30.178Z,4.90
2018-11-27T08:42:58.780Z,5.00
2018-11-27T08:45:27.492Z,4.90
2018-11-27T08:47:56.663Z,5.10
2018-11-27T08:50:26.460Z,5.10
2018-11-27T08:52:57.982Z,5.00
2018-11-27T08:55:29.317Z,5.00
2018-11-27T08:57:57.900Z,5.10
2018-11-27T09:00:26.917Z,5.10
2018-11-27T09:02:55.722Z,5.10
2018-11-27T09:05:24.188Z,5.10
2018-11-27T09:07:52.757Z,5.20
2018-11-27T09:10:22.913Z,5.20
2018-11-27T09:12:51.589Z,5.20
2018-11-27T09:15:21.322Z,5.20
2018-11-27T09:18:01.313Z,5.20
2018-11-27T09:20:29.806Z,5.20
2018-11-27T09:22:58.308Z,5.20
2018-11-27T09:25:26.853Z,5.10
2018-11-27T09:27:55.321Z,5.00
2018-11-27T09:30:25.145Z,5.10
2018-11-27T09:32:54.522Z,5.10
2018-11-27T09:35:23.029Z,5.10
2018-11-27T09:37:51.564Z,5.10
2018-11-27T09:40:20.796Z,5.10
2018-11-27T09:42:49.382Z,5.10
2018-11-27T09:45:20.034Z,5.10
2018-11-27T09:47:56.359Z,5.20
2018-11-27T09:50:24.902Z,5.10
2018-11-27T09:52:53.822Z,5.20
2018-11-27T09:55:23.589Z,5.20
2018-11-27T09:57:52.194Z,5.10
2018-11-27T10:00:25.775Z,5.20
2018-11-27T10:02:55.563Z,5.20
2018-11-27T10:05:24.350Z,5.20
2018-11-27T10:07:52.995Z,5.20
2018-11-27T10:10:23.164Z,5.30
2018-11-27T10:12:51.796Z,5.20
2018-11-27T10:15:25.197Z,5.20
2018-11-27T10:17:57.562Z,5.20
2018-11-27T10:20:27.440Z,5.30
2018-11-27T10:22:55.990Z,5.30
2018-11-27T10:25:24.473Z,5.30
2018-11-27T10:27:52.969Z,5.30
2018-11-27T10:30:23.627Z,5.20
2018-11-27T10:32:53.316Z,5.30
2018-11-27T10:35:24.822Z,5.30
2018-11-27T10:37:53.449Z,5.40
2018-11-27T10:40:22.266Z,5.40
2018-11-27T10:42:51.152Z,5.40
2018-11-27T10:45:21.905Z,5.50
2018-11-27T10:47:51.805Z,5.50
2018-11-27T10:50:20.541Z,5.50
2018-11-27T10:52:52.216Z,5.50
2018-11-27T10:55:21.440Z,5.60
2018-11-27T10:57:50.096Z,5.60
2018-11-27T11:00:27.736Z,5.70
2018-11-27T11:04:04.237Z,5.70
2018-11-27T11:06:33.261Z,5.70
2018-11-27T11:09:02.544Z,5.70
2018-11-27T11:11:31.317Z,5.70
2018-11-27T11:13:59.877Z,5.60
2018-11-27T11:16:28.370Z,5.60
2018-11-27T11:18:56.953Z,5.50
2018-11-27T11:21:25.430Z,5.50
2018-11-27T11:23:54.190Z,5.50
2018-11-27T11:26:22.767Z,5.60
2018-11-27T11:28:51.258Z,5.60
2018-11-27T11:31:19.834Z,5.30
2018-11-27T11:33:48.426Z,5.30
2018-11-27T11:36:17.069Z,5.20
2018-11-27T11:38:45.629Z,5.20
2018-11-27T11:41:14.263Z,5.00
2018-11-27T11:43:42.877Z,5.00
2018-11-27T11:46:11.385Z,5.00
2018-11-27T11:48:39.877Z,5.10
2018-11-27T11:51:08.569Z,5.20
2018-11-27T11:53:37.392Z,5.40
2018-11-27T11:56:07.802Z,5.40
2018-11-27T11:58:36.434Z,5.50
2018-11-27T12:01:05.218Z,5.50
2018-11-27T12:03:33.805Z,5.60
2018-11-27T12:06:02.285Z,5.60
2018-11-27T12:08:30.898Z,5.60
2018-11-27T12:10:59.418Z,5.60
2018-11-27T12:13:27.990Z,5.50
2018-11-27T12:15:56.489Z,5.60
2018-11-27T12:18:25.015Z,5.60
2018-11-27T12:20:53.593Z,5.60
2018-11-27T12:23:22.272Z,5.60
2018-11-27T12:25:51.045Z,5.70
2018-11-27T12:28:19.793Z,5.70
2018-11-27T12:30:48.273Z,5.70
2018-11-27T12:33:16.800Z,5.70
2018-11-27T12:35:45.401Z,5.80
2018-11-27T12:38:13.882Z,5.70
2018-11-27T12:40:42.472Z,5.80
2018-11-27T12:43:10.960Z,5.80
2018-11-27T12:45:39.604Z,5.90
2018-11-27T12:48:08.110Z,5.90
2018-11-27T12:50:43.924Z,5.80
2018-11-27T12:53:16.820Z,5.70
2018-11-27T12:55:43.890Z,5.70
2018-11-27T12:58:12.513Z,5.80
2018-11-27T13:00:41.054Z,5.70
2018-11-27T13:03:09.745Z,5.70
2018-11-27T13:05:41.844Z,5.60
2018-11-27T13:08:12.000Z,5.50
2018-11-27T13:10:40.855Z,5.50
2018-11-27T13:13:09.487Z,5.50
2018-11-27T13:15:39.236Z,5.50
2018-11-27T13:18:09.129Z,5.40
2018-11-27T13:20:38.116Z,5.40
2018-11-27T13:23:07.116Z,5.40
2018-11-27T13:25:36.506Z,5.30
2018-11-27T13:28:05.518Z,5.30
2018-11-27T13:30:43.648Z,5.30
2018-11-27T13:33:16.330Z,5.20
2018-11-27T13:35:44.865Z,5.30
2018-11-27T13:38:13.425Z,5.20
2018-11-27T13:40:42.349Z,5.10
2018-11-27T13:43:12.686Z,5.20
2018-11-27T13:45:41.236Z,5.10
2018-11-27T13:48:09.721Z,5.10
2018-11-27T13:50:38.208Z,5.10
2018-11-27T13:53:06.919Z,5.10
2018-11-27T13:55:35.353Z,5.10
2018-11-27T13:58:03.894Z,5.00
2018-11-27T14:00:32.431Z,5.00
2018-11-27T14:03:00.955Z,4.90
2018-11-27T14:05:29.540Z,4.90
2018-11-27T14:07:58.092Z,5.00
2018-11-27T14:10:26.561Z,4.90
2018-11-27T14:12:55.077Z,5.00
2018-11-27T14:15:25.044Z,4.90
2018-11-27T14:17:54.782Z,4.90
2018-11-27T14:20:23.298Z,4.90
2018-11-27T14:22:52.265Z,4.90
2018-11-27T14:25:20.773Z,4.90
2018-11-27T14:27:50.544Z,4.80
2018-11-27T14:30:20.369Z,4.80
2018-11-27T14:32:49.439Z,4.80
2018-11-27T14:35:19.215Z,4.80
2018-11-27T14:37:48.696Z,4.80
2018-11-27T14:40:22.166Z,4.70
2018-11-27T14:42:50.672Z,4.70
2018-11-27T14:45:20.994Z,4.60
2018-11-27T14:47:51.901Z,4.70
2018-11-27T14:50:20.424Z,4.60
2018-11-27T14:52:49.121Z,4.60
2018-11-27T14:55:20.801Z,4.60
2018-11-27T14:57:49.334Z,4.50
2018-11-27T15:00:19.317Z,4.50
2018-11-27T15:02:47.981Z,4.50
2018-11-27T15:05:34.286Z,4.40
2018-11-27T15:08:03.529Z,4.40
2018-11-27T15:10:32.074Z,4.40
2018-11-27T15:13:00.621Z,4.30
2018-11-27T15:15:29.084Z,4.30
2018-11-27T15:17:57.663Z,4.30
2018-11-27T15:20:26.286Z,4.20
2018-11-27T15:22:54.823Z,4.20
2018-11-27T15:25:23.610Z,4.10
2018-11-27T15:27:52.109Z,4.10
2018-11-27T15:30:23.777Z,4.10
2018-11-27T15:32:53.647Z,4.00
2018-11-27T15:35:22.162Z,4.00
2018-11-27T15:37:50.660Z,3.90
2018-11-27T15:40:24.415Z,3.90
2018-11-27T15:42:53.468Z,3.80
2018-11-27T15:45:33.538Z,3.80
2018-11-27T15:48:02.896Z,3.90
2018-11-27T15:50:31.489Z,3.80
2018-11-27T15:52:59.965Z,3.80
2018-11-27T15:55:30.997Z,3.80
2018-11-27T15:58:05.094Z,3.80
2018-11-27T16:00:33.709Z,3.70
2018-11-27T16:03:02.181Z,3.70
2018-11-27T16:05:30.867Z,3.70
2018-11-27T16:07:59.581Z,3.70
2018-11-27T16:10:28.103Z,3.60
2018-11-27T16:12:56.677Z,3.70
2018-11-27T16:15:25.249Z,3.60
2018-11-27T16:17:53.761Z,3.60
2018-11-27T16:20:22.646Z,3.50
2018-11-27T16:22:52.238Z,3.50
2018-11-27T16:25:22.993Z,3.40
2018-11-27T16:27:51.561Z,3.40
2018-11-27T16:30:22.133Z,3.30
2018-11-27T16:32:50.701Z,3.30
2018-11-27T16:35:19.247Z,3.30
2018-11-27T16:37:49.353Z,3.20
2018-11-27T16:40:19.078Z,3.10
2018-11-27T16:42:47.727Z,3.10
2018-11-27T16:45:18.883Z,3.20
2018-11-27T16:47:47.671Z,3.10
2018-11-27T16:50:17.062Z,3.10
2018-11-27T16:52:46.008Z,3.10
2018-11-27T16:55:15.708Z,3.10
2018-11-27T16:57:44.269Z,3.10
2018-11-27T17:00:20.942Z,3.10
2018-11-27T17:02:50.561Z,3.00
2018-11-27T17:05:19.306Z,3.10
2018-11-27T17:07:47.912Z,3.00
2018-11-27T17:10:17.688Z,2.90
2018-11-27T17:12:47.250Z,2.70
2018-11-27T17:15:17.066Z,2.60
2018-11-27T17:17:45.648Z,2.60
2018-11-27T17:20:27.022Z,2.50
2018-11-27T17:22:56.499Z,2.40
2018-11-27T17:25:25.006Z,2.40
2018-11-27T17:27:54.490Z,2.40
2018-11-27T17:30:25.669Z,2.30
2018-11-27T17:32:55.017Z,2.20
2018-11-27T17:35:24.392Z,2.20
2018-11-27T17:37:53.144Z,2.10
2018-11-27T17:40:21.913Z,2.10
2018-11-27T17:42:50.433Z,2.10
2018-11-27T17:45:19.136Z,2.10
2018-11-27T17:47:47.757Z,2.20
2018-11-27T17:50:17.312Z,2.20
2018-11-27T17:52:45.923Z,2.10
2018-11-27T17:55:14.890Z,2.00
2018-11-27T17:57:43.442Z,2.00
2018-11-27T18:00:21.737Z,2.00
2018-11-27T18:02:51.947Z,2.00
2018-11-27T18:05:20.555Z,2.00
2018-11-27T18:07:49.335Z,1.90
2018-11-27T18:10:17.804Z,1.90
2018-11-27T18:12:46.361Z,2.00
2018-11-27T18:15:17.101Z,1.90
2018-11-27T18:17:45.726Z,1.90
2018-11-27T18:20:14.681Z,1.90
2018-11-27T18:22:43.288Z,1.80
2018-11-27T18:25:12.985Z,1.80
2018-11-27T18:27:42.286Z,1.70
2018-11-27T18:30:12.323Z,1.80
2018-11-27T18:32:41.062Z,1.80
2018-11-27T18:35:11.207Z,1.70
2018-11-27T18:37:39.977Z,1.80
2018-11-27T18:40:11.779Z,1.70
2018-11-27T18:42:40.558Z,1.80
2018-11-27T18:45:18.030Z,1.80
2018-11-27T18:47:46.841Z,1.90
2018-11-27T18:50:15.584Z,1.80
2018-11-27T18:52:44.470Z,1.80
2018-11-27T18:55:14.225Z,1.90
2018-11-27T18:57:43.609Z,1.80
2018-11-27T19:00:20.173Z,1.80
2018-11-27T19:02:48.790Z,1.80
2018-11-27T19:05:17.435Z,1.70
2018-11-27T19:07:46.050Z,1.70
2018-11-27T19:10:16.829Z,1.70
2018-11-27T19:12:45.863Z,1.80
2018-11-27T19:15:18.731Z,1.80
2018-11-27T19:17:48.701Z,1.80
2018-11-27T19:20:17.312Z,1.70
2018-11-27T19:22:45.829Z,1.70
2018-11-27T19:25:15.426Z,1.70
2018-11-27T19:27:44.135Z,1.60
2018-11-27T19:30:16.399Z,1.70
2018-11-27T19:32:44.781Z,1.70
2018-11-27T19:35:16.573Z,1.60
2018-11-27T19:37:45.902Z,1.60
2018-11-27T19:40:16.669Z,1.60
2018-11-27T19:42:45.311Z,1.60
2018-11-27T19:45:15.378Z,1.60
2018-11-27T19:47:44.038Z,1.60
2018-11-27T19:50:13.355Z,1.60
2018-11-27T19:52:43.001Z,1.60
2018-11-27T19:55:13.792Z,1.60
2018-11-27T19:57:42.477Z,1.70
2018-11-27T20:00:14.677Z,1.60
2018-11-27T20:02:43.522Z,1.60
2018-11-27T20:05:13.537Z,1.60
2018-11-27T20:07:42.244Z,1.70
2018-11-27T20:10:12.016Z,1.80
2018-11-27T20:12:40.794Z,1.80
2018-11-27T20:15:14.126Z,1.70
2018-11-27T20:17:43.016Z,1.60
2018-11-27T20:20:12.857Z,1.70
2018-11-27T20:22:41.375Z,1.80
2018-11-27T20:25:11.509Z,1.70
2018-11-27T20:27:40.162Z,1.70
2018-11-27T20:30:14.223Z,1.70
2018-11-27T20:32:44.087Z,1.80
2018-11-27T20:35:13.929Z,1.80
2018-11-27T20:37:43.066Z,1.80
2018-11-27T20:40:12.958Z,1.80
2018-11-27T20:42:41.714Z,1.80
2018-11-27T20:45:12.172Z,1.80
2018-11-27T20:47:40.932Z,1.70
2018-11-27T20:50:12.283Z,1.70
2018-11-27T20:52:39.745Z,1.60
2018-11-27T20:55:09.254Z,1.60
2018-11-27T20:57:38.232Z,1.60
2018-11-27T21:00:12.251Z,1.60
2018-11-27T21:02:40.880Z,1.50
2018-11-27T21:05:10.177Z,1.50
2018-11-27T21:07:38.908Z,1.60
2018-11-27T21:10:10.980Z,1.50
2018-11-27T21:12:41.277Z,1.50
2018-11-27T21:15:11.387Z,1.40
2018-11-27T21:17:40.098Z,1.40
2018-11-27T21:20:11.095Z,1.30
2018-11-27T21:22:39.865Z,1.30
2018-11-27T21:25:11.500Z,1.20
2018-11-27T21:27:40.194Z,1.20
2018-11-27T21:30:16.939Z,1.20
2018-11-27T21:32:45.773Z,1.20
2018-11-27T21:35:15.453Z,1.30
2018-11-27T21:37:43.973Z,1.30
2018-11-27T21:40:13.524Z,1.30
2018-11-27T21:42:42.129Z,1.20
2018-11-27T21:45:15.701Z,1.20
2018-11-27T21:47:44.614Z,1.10
2018-11-27T21:50:17.397Z,1.20
2018-11-27T21:52:45.932Z,1.10
2018-11-27T21:55:15.110Z,1.00
2018-11-27T21:57:44.291Z,1.00
2018-11-27T22:00:18.057Z,1.00
2018-11-27T22:02:47.045Z,1.00
2018-11-27T22:05:15.844Z,1.00
2018-11-27T22:07:44.959Z,1.10
2018-11-27T22:10:14.810Z,1.10
2018-11-27T22:12:44.586Z,1.10
2018-11-27T22:15:15.490Z,1.10
2018-11-27T22:17:44.049Z,1.10
2018-11-27T22:20:12.885Z,1.10
2018-11-27T22:22:41.394Z,1.10
2018-11-27T22:25:12.091Z,1.10
2018-11-27T22:27:40.697Z,1.10
2018-11-27T22:30:13.241Z,1.10
2018-11-27T22:32:43.061Z,1.10
2018-11-27T22:35:11.972Z,1.10
2018-11-27T22:37:40.625Z,1.10
2018-11-27T22:40:12.264Z,1.10
2018-11-27T22:42:40.966Z,1.10
2018-11-27T22:45:13.774Z,1.10
2018-11-27T22:47:42.278Z,1.10
2018-11-27T22:50:14.293Z,1.10
2018-11-27T22:52:42.813Z,1.00
2018-11-27T22:55:12.006Z,1.10
2018-11-27T22:57:41.184Z,1.00
2018-11-27T23:00:20.805Z,1.10
2018-11-27T23:02:49.731Z,1.00
2018-11-27T23:05:19.365Z,1.10
2018-11-27T23:07:48.102Z,1.10
2018-11-27T23:12:45.964Z,1.00
2018-11-27T23:15:16.713Z,1.00
2018-11-27T23:17:45.432Z,1.00
2018-11-27T23:20:15.982Z,0.90
2018-11-27T23:22:44.584Z,0.90
2018-11-27T23:25:14.101Z,0.90
2018-11-27T23:27:43.121Z,0.90
2018-11-27T23:30:16.097Z,0.90
2018-11-27T23:32:44.782Z,0.90
2018-11-27T23:35:13.388Z,0.90
2018-11-27T23:37:41.975Z,0.90
2018-11-27T23:40:14.825Z,0.90
2018-11-27T23:42:43.849Z,0.90
2018-11-27T23:45:20.876Z,0.80
2018-11-27T23:47:49.503Z,0.80
2018-11-27T23:50:20.098Z,0.80
2018-11-27T23:52:48.774Z,0.70
2018-11-27T23:55:18.276Z,0.70
2018-11-27T23:57:47.289Z,0.70
